sensor_id;sensor_type;location;lat;lon;timestamp;pressure;altitude;pressure_sealevel;temperature;humidity
34081;BME280;20358;50.272;19.026;2024-02-21T00:01:52;98902.81;;;9.60;64.32
34081;BME280;20358;50.272;19.026;2024-02-21T00:05:00;98893.09;;;9.65;63.85
34081;BME280;20358;50.272;19.026;2024-02-21T00:08:08;98896.22;;;9.74;63.22
34081;BME280;20358;50.272;19.026;2024-02-21T00:11:19;98896.50;;;9.67;62.75
34081;BME280;20358;50.272;19.026;2024-02-21T00:14:27;98899.91;;;9.69;62.92
34081;BME280;20358;50.272;19.026;2024-02-21T00:17:43;98891.47;;;9.62;62.81
34081;BME280;20358;50.272;19.026;2024-02-21T00:21:16;98894.31;;;9.55;62.56
34081;BME280;20358;50.272;19.026;2024-02-21T00:25:08;98894.84;;;9.64;62.59
34081;BME280;20358;50.272;19.026;2024-02-21T00:29:06;98892.91;;;9.69;62.13
34081;BME280;20358;50.272;19.026;2024-02-21T00:32:15;98890.59;;;9.62;62.03
34081;BME280;20358;50.272;19.026;2024-02-21T00:35:22;98879.91;;;9.68;62.00
34081;BME280;20358;50.272;19.026;2024-02-21T00:38:29;98881.41;;;9.75;61.90
34081;BME280;20358;50.272;19.026;2024-02-21T00:41:38;98875.16;;;9.79;62.33
34081;BME280;20358;50.272;19.026;2024-02-21T00:44:47;98876.59;;;9.86;61.19
34081;BME280;20358;50.272;19.026;2024-02-21T00:47:59;98875.81;;;9.84;61.57
34081;BME280;20358;50.272;19.026;2024-02-21T00:51:29;98872.19;;;9.88;61.52
34081;BME280;20358;50.272;19.026;2024-02-21T00:59:02;98866.72;;;9.94;61.79
34081;BME280;20358;50.272;19.026;2024-02-21T01:02:29;98859.81;;;9.93;61.73
34081;BME280;20358;50.272;19.026;2024-02-21T01:06:25;98862.53;;;9.90;61.76
34081;BME280;20358;50.272;19.026;2024-02-21T01:10:16;98859.94;;;9.90;61.83
34081;BME280;20358;50.272;19.026;2024-02-21T01:13:29;98861.88;;;9.85;61.91
34081;BME280;20358;50.272;19.026;2024-02-21T01:16:44;98856.88;;;9.79;62.22
34081;BME280;20358;50.272;19.026;2024-02-21T01:19:59;98853.47;;;9.77;62.45
34081;BME280;20358;50.272;19.026;2024-02-21T01:23:18;98860.38;;;9.78;62.46
34081;BME280;20358;50.272;19.026;2024-02-21T01:26:26;98859.44;;;9.80;62.67
34081;BME280;20358;50.272;19.026;2024-02-21T01:29:36;98849.94;;;9.78;62.50
34081;BME280;20358;50.272;19.026;2024-02-21T01:32:55;98844.28;;;9.67;62.52
34081;BME280;20358;50.272;19.026;2024-02-21T01:36:07;98845.53;;;9.57;63.09
34081;BME280;20358;50.272;19.026;2024-02-21T01:39:15;98832.41;;;9.58;63.15
34081;BME280;20358;50.272;19.026;2024-02-21T01:42:23;98830.84;;;9.54;63.14
34081;BME280;20358;50.272;19.026;2024-02-21T01:45:30;98830.09;;;9.51;63.26
34081;BME280;20358;50.272;19.026;2024-02-21T01:48:39;98819.44;;;9.57;62.92
34081;BME280;20358;50.272;19.026;2024-02-21T01:51:49;98819.44;;;9.57;63.16
34081;BME280;20358;50.272;19.026;2024-02-21T01:55:01;98820.34;;;9.56;63.13
34081;BME280;20358;50.272;19.026;2024-02-21T01:58:09;98819.88;;;9.45;63.29
34081;BME280;20358;50.272;19.026;2024-02-21T02:01:18;98820.13;;;9.39;63.19
34081;BME280;20358;50.272;19.026;2024-02-21T02:04:26;98818.97;;;9.22;63.63
34081;BME280;20358;50.272;19.026;2024-02-21T02:07:37;98816.09;;;9.30;63.38
34081;BME280;20358;50.272;19.026;2024-02-21T02:10:44;98810.38;;;9.20;63.54
34081;BME280;20358;50.272;19.026;2024-02-21T02:13:53;98824.19;;;9.22;63.77
34081;BME280;20358;50.272;19.026;2024-02-21T02:17:01;98818.75;;;9.28;63.59
34081;BME280;20358;50.272;19.026;2024-02-21T02:20:17;98813.41;;;9.31;63.66
34081;BME280;20358;50.272;19.026;2024-02-21T02:23:45;98813.19;;;9.38;63.21
34081;BME280;20358;50.272;19.026;2024-02-21T02:27:01;98812.88;;;9.47;63.27
34081;BME280;20358;50.272;19.026;2024-02-21T02:30:11;98805.56;;;9.55;63.25
34081;BME280;20358;50.272;19.026;2024-02-21T02:33:25;98801.03;;;9.60;62.41
34081;BME280;20358;50.272;19.026;2024-02-21T02:36:44;98801.09;;;9.58;62.13
34081;BME280;20358;50.272;19.026;2024-02-21T02:40:18;98792.38;;;9.59;62.32
34081;BME280;20358;50.272;19.026;2024-02-21T02:43:36;98786.97;;;9.64;62.53
34081;BME280;20358;50.272;19.026;2024-02-21T02:46:54;98785.91;;;9.68;62.21
34081;BME280;20358;50.272;19.026;2024-02-21T02:50:08;98785.91;;;9.68;62.69
34081;BME280;20358;50.272;19.026;2024-02-21T02:53:17;98779.91;;;9.66;62.26
34081;BME280;20358;50.272;19.026;2024-02-21T02:56:26;98784.47;;;9.61;62.61
34081;BME280;20358;50.272;19.026;2024-02-21T02:59:34;98784.47;;;9.61;62.18
34081;BME280;20358;50.272;19.026;2024-02-21T03:02:43;98782.53;;;9.44;62.55
34081;BME280;20358;50.272;19.026;2024-02-21T03:05:53;98785.28;;;9.40;62.87
34081;BME280;20358;50.272;19.026;2024-02-21T03:09:01;98782.66;;;9.40;62.97
34081;BME280;20358;50.272;19.026;2024-02-21T03:12:15;98782.00;;;9.34;63.22
34081;BME280;20358;50.272;19.026;2024-02-21T03:15:27;98781.03;;;9.37;63.51
34081;BME280;20358;50.272;19.026;2024-02-21T03:18:36;98779.66;;;9.27;63.23
34081;BME280;20358;50.272;19.026;2024-02-21T03:21:43;98785.84;;;9.24;63.52
34081;BME280;20358;50.272;19.026;2024-02-21T03:24:55;98778.81;;;9.26;63.95
34081;BME280;20358;50.272;19.026;2024-02-21T03:28:05;98770.66;;;9.35;64.16
34081;BME280;20358;50.272;19.026;2024-02-21T03:31:13;98774.94;;;9.36;63.25
34081;BME280;20358;50.272;19.026;2024-02-21T03:34:27;98778.22;;;9.42;63.41
34081;BME280;20358;50.272;19.026;2024-02-21T03:37:41;98774.84;;;9.40;63.33
34081;BME280;20358;50.272;19.026;2024-02-21T03:41:02;98773.84;;;9.44;63.06
34081;BME280;20358;50.272;19.026;2024-02-21T03:44:21;98766.00;;;9.44;63.17
34081;BME280;20358;50.272;19.026;2024-02-21T03:47:29;98760.91;;;9.41;62.90
34081;BME280;20358;50.272;19.026;2024-02-21T03:50:38;98764.28;;;9.43;63.24
34081;BME280;20358;50.272;19.026;2024-02-21T03:53:46;98779.19;;;9.39;63.00
34081;BME280;20358;50.272;19.026;2024-02-21T03:56:54;98788.75;;;9.40;63.07
34081;BME280;20358;50.272;19.026;2024-02-21T04:00:05;98792.22;;;9.41;63.69
34081;BME280;20358;50.272;19.026;2024-02-21T04:03:17;98779.84;;;9.46;64.04
34081;BME280;20358;50.272;19.026;2024-02-21T04:06:24;98773.66;;;9.48;64.01
34081;BME280;20358;50.272;19.026;2024-02-21T04:09:32;98775.41;;;9.48;63.75
34081;BME280;20358;50.272;19.026;2024-02-21T04:12:41;98767.69;;;9.45;63.85
34081;BME280;20358;50.272;19.026;2024-02-21T04:15:51;98771.34;;;9.41;63.76
34081;BME280;20358;50.272;19.026;2024-02-21T04:18:59;98765.03;;;9.46;64.09
34081;BME280;20358;50.272;19.026;2024-02-21T04:22:07;98760.53;;;9.50;63.54
34081;BME280;20358;50.272;19.026;2024-02-21T04:25:15;98760.31;;;9.56;63.61
34081;BME280;20358;50.272;19.026;2024-02-21T04:28:24;98768.34;;;9.50;62.93
34081;BME280;20358;50.272;19.026;2024-02-21T04:31:35;98752.13;;;9.42;63.25
34081;BME280;20358;50.272;19.026;2024-02-21T04:34:43;98753.97;;;9.40;63.66
34081;BME280;20358;50.272;19.026;2024-02-21T04:37:50;98750.34;;;9.44;63.61
34081;BME280;20358;50.272;19.026;2024-02-21T04:40:58;98753.63;;;9.49;63.70
34081;BME280;20358;50.272;19.026;2024-02-21T04:44:05;98761.16;;;9.56;63.21
34081;BME280;20358;50.272;19.026;2024-02-21T04:47:16;98750.53;;;9.61;63.17
34081;BME280;20358;50.272;19.026;2024-02-21T04:50:25;98751.19;;;9.66;62.85
34081;BME280;20358;50.272;19.026;2024-02-21T04:53:48;98740.66;;;9.69;62.66
34081;BME280;20358;50.272;19.026;2024-02-21T04:57:04;98730.97;;;9.71;62.70
34081;BME280;20358;50.272;19.026;2024-02-21T05:00:19;98754.47;;;9.71;62.32
34081;BME280;20358;50.272;19.026;2024-02-21T05:03:31;98724.19;;;9.67;62.22
34081;BME280;20358;50.272;19.026;2024-02-21T05:06:42;98728.88;;;9.59;62.49
34081;BME280;20358;50.272;19.026;2024-02-21T05:09:53;98723.75;;;9.56;62.84
34081;BME280;20358;50.272;19.026;2024-02-21T05:13:01;98732.75;;;9.49;62.68
34081;BME280;20358;50.272;19.026;2024-02-21T05:16:10;98715.50;;;9.45;62.85
34081;BME280;20358;50.272;19.026;2024-02-21T05:19:25;98720.03;;;9.40;63.13
34081;BME280;20358;50.272;19.026;2024-02-21T05:22:33;98726.03;;;9.42;62.94
34081;BME280;20358;50.272;19.026;2024-02-21T05:25:41;98734.81;;;9.41;63.41
34081;BME280;20358;50.272;19.026;2024-02-21T05:28:48;98719.16;;;9.41;63.52
34081;BME280;20358;50.272;19.026;2024-02-21T05:31:57;98717.22;;;9.46;63.22
34081;BME280;20358;50.272;19.026;2024-02-21T05:35:15;98719.03;;;9.44;63.09
34081;BME280;20358;50.272;19.026;2024-02-21T05:39:14;98719.03;;;9.44;63.20
34081;BME280;20358;50.272;19.026;2024-02-21T05:42:30;98713.38;;;9.32;63.16
34081;BME280;20358;50.272;19.026;2024-02-21T05:49:32;98715.38;;;9.26;63.37
34081;BME280;20358;50.272;19.026;2024-02-21T05:53:04;98714.75;;;9.19;63.54
34081;BME280;20358;50.272;19.026;2024-02-21T05:56:37;98707.69;;;9.21;63.75
34081;BME280;20358;50.272;19.026;2024-02-21T06:00:20;98716.38;;;9.22;63.27
34081;BME280;20358;50.272;19.026;2024-02-21T06:03:45;98712.81;;;9.24;63.64
34081;BME280;20358;50.272;19.026;2024-02-21T06:07:16;98710.75;;;9.32;63.46
34081;BME280;20358;50.272;19.026;2024-02-21T06:10:30;98713.81;;;9.44;63.49
34081;BME280;20358;50.272;19.026;2024-02-21T06:13:38;98713.31;;;9.56;63.32
34081;BME280;20358;50.272;19.026;2024-02-21T06:16:56;98717.16;;;9.69;62.94
34081;BME280;20358;50.272;19.026;2024-02-21T06:20:08;98711.50;;;9.79;62.83
34081;BME280;20358;50.272;19.026;2024-02-21T06:23:31;98716.22;;;9.91;62.16
34081;BME280;20358;50.272;19.026;2024-02-21T06:26:44;98714.38;;;9.93;61.32
34081;BME280;20358;50.272;19.026;2024-02-21T06:29:53;98715.25;;;9.94;61.58
34081;BME280;20358;50.272;19.026;2024-02-21T06:33:02;98716.72;;;10.01;62.07
34081;BME280;20358;50.272;19.026;2024-02-21T06:36:15;98713.28;;;9.99;61.37
34081;BME280;20358;50.272;19.026;2024-02-21T06:39:23;98713.19;;;10.02;61.48
34081;BME280;20358;50.272;19.026;2024-02-21T06:42:36;98715.53;;;10.08;61.58
34081;BME280;20358;50.272;19.026;2024-02-21T06:45:47;98712.75;;;10.13;61.11
34081;BME280;20358;50.272;19.026;2024-02-21T06:49:04;98715.84;;;10.22;61.37
34081;BME280;20358;50.272;19.026;2024-02-21T06:52:11;98717.31;;;10.29;60.78
34081;BME280;20358;50.272;19.026;2024-02-21T06:55:21;98707.50;;;10.34;60.77
34081;BME280;20358;50.272;19.026;2024-02-21T06:58:30;98714.28;;;10.38;60.63
34081;BME280;20358;50.272;19.026;2024-02-21T07:01:37;98714.03;;;10.44;60.27
34081;BME280;20358;50.272;19.026;2024-02-21T07:04:44;98714.69;;;10.49;60.34
34081;BME280;20358;50.272;19.026;2024-02-21T07:07:52;98720.16;;;10.43;59.91
34081;BME280;20358;50.272;19.026;2024-02-21T07:10:59;98716.50;;;10.27;60.37
34081;BME280;20358;50.272;19.026;2024-02-21T07:14:09;98714.69;;;10.29;60.68
34081;BME280;20358;50.272;19.026;2024-02-21T07:17:15;98715.34;;;10.34;60.41
34081;BME280;20358;50.272;19.026;2024-02-21T07:20:23;98714.56;;;10.32;60.11
34081;BME280;20358;50.272;19.026;2024-02-21T07:23:29;98719.63;;;10.35;60.32
34081;BME280;20358;50.272;19.026;2024-02-21T07:26:37;98704.75;;;10.37;60.07
34081;BME280;20358;50.272;19.026;2024-02-21T07:29:49;98711.66;;;10.38;59.92
34081;BME280;20358;50.272;19.026;2024-02-21T07:32:57;98706.72;;;10.32;60.14
34081;BME280;20358;50.272;19.026;2024-02-21T07:36:07;98700.50;;;10.35;60.35
34081;BME280;20358;50.272;19.026;2024-02-21T07:39:15;98694.81;;;10.45;60.30
34081;BME280;20358;50.272;19.026;2024-02-21T07:42:22;98690.94;;;10.54;60.17
34081;BME280;20358;50.272;19.026;2024-02-21T07:45:32;98686.03;;;10.67;60.19
34081;BME280;20358;50.272;19.026;2024-02-21T07:48:38;98693.34;;;10.79;59.65
34081;BME280;20358;50.272;19.026;2024-02-21T07:51:45;98696.72;;;10.81;59.25
34081;BME280;20358;50.272;19.026;2024-02-21T07:54:52;98694.13;;;10.81;59.22
34081;BME280;20358;50.272;19.026;2024-02-21T07:58:00;98686.78;;;10.89;59.35
34081;BME280;20358;50.272;19.026;2024-02-21T08:01:10;98682.81;;;10.99;59.40
34081;BME280;20358;50.272;19.026;2024-02-21T08:04:18;98679.00;;;11.06;58.84
34081;BME280;20358;50.272;19.026;2024-02-21T08:07:25;98683.66;;;11.18;58.98
34081;BME280;20358;50.272;19.026;2024-02-21T08:10:34;98664.16;;;11.25;59.13
34081;BME280;20358;50.272;19.026;2024-02-21T08:13:41;98658.63;;;11.31;58.45
34081;BME280;20358;50.272;19.026;2024-02-21T08:16:52;98662.59;;;11.40;58.81
34081;BME280;20358;50.272;19.026;2024-02-21T08:19:59;98657.06;;;11.46;58.36
34081;BME280;20358;50.272;19.026;2024-02-21T08:23:07;98652.38;;;11.52;57.43
34081;BME280;20358;50.272;19.026;2024-02-21T08:26:15;98652.00;;;11.60;57.23
34081;BME280;20358;50.272;19.026;2024-02-21T08:29:23;98652.38;;;11.52;56.89
34081;BME280;20358;50.272;19.026;2024-02-21T08:32:32;98655.94;;;11.51;57.01
34081;BME280;20358;50.272;19.026;2024-02-21T08:35:44;98642.03;;;11.49;57.59
34081;BME280;20358;50.272;19.026;2024-02-21T08:38:57;98652.94;;;11.59;57.96
34081;BME280;20358;50.272;19.026;2024-02-21T08:42:05;98646.00;;;11.58;57.48
34081;BME280;20358;50.272;19.026;2024-02-21T08:45:13;98643.59;;;11.53;57.66
34081;BME280;20358;50.272;19.026;2024-02-21T08:48:24;98637.91;;;11.62;57.99
34081;BME280;20358;50.272;19.026;2024-02-21T08:51:31;98634.66;;;11.76;57.86
34081;BME280;20358;50.272;19.026;2024-02-21T08:54:40;98630.59;;;11.88;57.74
34081;BME280;20358;50.272;19.026;2024-02-21T08:57:51;98622.72;;;12.05;57.22
34081;BME280;20358;50.272;19.026;2024-02-21T09:00:59;98625.41;;;12.20;57.09
34081;BME280;20358;50.272;19.026;2024-02-21T09:04:09;98608.38;;;12.29;56.25
34081;BME280;20358;50.272;19.026;2024-02-21T09:07:18;98607.00;;;12.37;56.03
34081;BME280;20358;50.272;19.026;2024-02-21T09:10:26;98609.00;;;12.50;56.25
34081;BME280;20358;50.272;19.026;2024-02-21T09:13:34;98615.78;;;12.21;56.08
34081;BME280;20358;50.272;19.026;2024-02-21T09:16:42;98616.22;;;12.29;55.65
34081;BME280;20358;50.272;19.026;2024-02-21T09:19:58;98623.53;;;12.39;55.58
34081;BME280;20358;50.272;19.026;2024-02-21T09:23:07;98618.19;;;12.41;55.23
34081;BME280;20358;50.272;19.026;2024-02-21T09:26:23;98622.53;;;12.42;55.21
34081;BME280;20358;50.272;19.026;2024-02-21T09:29:31;98628.03;;;12.53;55.43
34081;BME280;20358;50.272;19.026;2024-02-21T09:32:40;98620.31;;;12.67;55.09
34081;BME280;20358;50.272;19.026;2024-02-21T09:35:51;98623.97;;;12.80;55.01
34081;BME280;20358;50.272;19.026;2024-02-21T09:39:02;98622.38;;;12.93;54.66
34081;BME280;20358;50.272;19.026;2024-02-21T09:42:11;98623.56;;;13.03;53.98
34081;BME280;20358;50.272;19.026;2024-02-21T09:45:26;98618.34;;;13.19;53.48
34081;BME280;20358;50.272;19.026;2024-02-21T09:48:46;98628.69;;;13.38;53.73
34081;BME280;20358;50.272;19.026;2024-02-21T09:52:13;98620.88;;;13.36;51.67
34081;BME280;20358;50.272;19.026;2024-02-21T09:55:27;98627.50;;;13.28;52.05
34081;BME280;20358;50.272;19.026;2024-02-21T09:58:44;98620.88;;;13.36;52.44
34081;BME280;20358;50.272;19.026;2024-02-21T10:01:53;98627.31;;;13.46;52.06
34081;BME280;20358;50.272;19.026;2024-02-21T10:05:08;98626.78;;;13.55;51.92
34081;BME280;20358;50.272;19.026;2024-02-21T10:08:25;98616.59;;;13.65;51.96
34081;BME280;20358;50.272;19.026;2024-02-21T10:11:34;98618.19;;;13.67;51.58
34081;BME280;20358;50.272;19.026;2024-02-21T10:14:46;98611.00;;;13.71;51.44
34081;BME280;20358;50.272;19.026;2024-02-21T10:17:59;98616.94;;;13.75;51.19
34081;BME280;20358;50.272;19.026;2024-02-21T10:21:08;98612.34;;;13.78;51.51
34081;BME280;20358;50.272;19.026;2024-02-21T10:24:26;98607.22;;;13.91;51.37
34081;BME280;20358;50.272;19.026;2024-02-21T10:27:36;98610.28;;;13.83;50.72
34081;BME280;20358;50.272;19.026;2024-02-21T10:30:50;98609.63;;;13.80;50.82
34081;BME280;20358;50.272;19.026;2024-02-21T10:33:58;98598.03;;;13.68;50.85
34081;BME280;20358;50.272;19.026;2024-02-21T10:37:09;98600.16;;;13.77;50.93
34081;BME280;20358;50.272;19.026;2024-02-21T10:40:19;98604.38;;;13.80;50.21
34081;BME280;20358;50.272;19.026;2024-02-21T10:43:40;98590.41;;;13.93;50.90
34081;BME280;20358;50.272;19.026;2024-02-21T10:46:51;98590.63;;;14.04;50.32
34081;BME280;20358;50.272;19.026;2024-02-21T10:50:04;98577.31;;;14.07;50.43
34081;BME280;20358;50.272;19.026;2024-02-21T10:53:23;98567.72;;;13.92;49.07
34081;BME280;20358;50.272;19.026;2024-02-21T10:56:45;98484.66;;;13.46;49.52
34081;BME280;20358;50.272;19.026;2024-02-21T10:59:59;98573.16;;;14.03;49.39
34081;BME280;20358;50.272;19.026;2024-02-21T11:03:22;98571.50;;;14.16;49.80
34081;BME280;20358;50.272;19.026;2024-02-21T11:06:37;98568.28;;;14.11;48.84
34081;BME280;20358;50.272;19.026;2024-02-21T11:09:53;98557.22;;;14.20;49.24
34081;BME280;20358;50.272;19.026;2024-02-21T11:13:11;98551.13;;;14.20;47.92
34081;BME280;20358;50.272;19.026;2024-02-21T11:16:25;98553.66;;;14.21;47.95
34081;BME280;20358;50.272;19.026;2024-02-21T11:19:37;98547.09;;;14.28;48.08
34081;BME280;20358;50.272;19.026;2024-02-21T11:22:46;98537.19;;;14.34;47.32
34081;BME280;20358;50.272;19.026;2024-02-21T11:26:09;98525.31;;;14.26;47.54
34081;BME280;20358;50.272;19.026;2024-02-21T11:29:26;98533.94;;;14.28;47.70
34081;BME280;20358;50.272;19.026;2024-02-21T11:32:42;98526.13;;;14.27;47.28
34081;BME280;20358;50.272;19.026;2024-02-21T11:36:24;98524.28;;;14.29;47.13
34081;BME280;20358;50.272;19.026;2024-02-21T11:39:37;98518.53;;;14.22;47.57
34081;BME280;20358;50.272;19.026;2024-02-21T11:42:46;98522.47;;;14.29;47.64
34081;BME280;20358;50.272;19.026;2024-02-21T11:46:07;98513.66;;;14.16;47.50
34081;BME280;20358;50.272;19.026;2024-02-21T11:49:18;98517.22;;;14.15;47.36
34081;BME280;20358;50.272;19.026;2024-02-21T11:52:28;98506.41;;;14.06;47.09
34081;BME280;20358;50.272;19.026;2024-02-21T11:55:36;98463.25;;;13.52;47.63
34081;BME280;20358;50.272;19.026;2024-02-21T11:58:43;98515.84;;;13.80;48.74
34081;BME280;20358;50.272;19.026;2024-02-21T12:01:58;98511.91;;;13.59;49.00
34081;BME280;20358;50.272;19.026;2024-02-21T12:05:07;98514.56;;;13.43;49.40
34081;BME280;20358;50.272;19.026;2024-02-21T12:08:17;98510.34;;;13.41;50.24
34081;BME280;20358;50.272;19.026;2024-02-21T12:11:27;98516.09;;;13.32;50.89
34081;BME280;20358;50.272;19.026;2024-02-21T12:14:38;98512.31;;;13.22;51.47
34081;BME280;20358;50.272;19.026;2024-02-21T12:17:50;98507.06;;;13.22;52.23
34081;BME280;20358;50.272;19.026;2024-02-21T12:20:59;98506.03;;;13.24;52.56
34081;BME280;20358;50.272;19.026;2024-02-21T12:24:15;98511.97;;;13.28;52.10
34081;BME280;20358;50.272;19.026;2024-02-21T12:27:24;98503.69;;;13.20;52.53
34081;BME280;20358;50.272;19.026;2024-02-21T12:30:34;98493.88;;;13.07;52.89
34081;BME280;20358;50.272;19.026;2024-02-21T12:33:47;98499.97;;;12.92;52.90
34081;BME280;20358;50.272;19.026;2024-02-21T12:37:01;98491.84;;;12.81;53.39
34081;BME280;20358;50.272;19.026;2024-02-21T12:40:15;98489.75;;;12.72;54.20
34081;BME280;20358;50.272;19.026;2024-02-21T12:43:22;98482.38;;;12.63;54.66
34081;BME280;20358;50.272;19.026;2024-02-21T12:46:31;98485.00;;;12.63;55.08
34081;BME280;20358;50.272;19.026;2024-02-21T12:49:41;98486.84;;;12.61;56.18
34081;BME280;20358;50.272;19.026;2024-02-21T12:52:53;98487.59;;;12.63;56.06
34081;BME280;20358;50.272;19.026;2024-02-21T12:56:05;98473.56;;;12.49;56.38
34081;BME280;20358;50.272;19.026;2024-02-21T12:59:29;98489.13;;;12.36;57.16
34081;BME280;20358;50.272;19.026;2024-02-21T13:02:41;98478.63;;;12.20;57.80
34081;BME280;20358;50.272;19.026;2024-02-21T13:06:02;98478.28;;;12.11;57.53
34081;BME280;20358;50.272;19.026;2024-02-21T13:09:21;98471.53;;;12.22;58.04
34081;BME280;20358;50.272;19.026;2024-02-21T13:12:32;98469.06;;;12.35;58.05
34081;BME280;20358;50.272;19.026;2024-02-21T13:15:42;98457.94;;;12.47;57.63
34081;BME280;20358;50.272;19.026;2024-02-21T13:18:50;98446.16;;;12.54;57.54
34081;BME280;20358;50.272;19.026;2024-02-21T13:22:00;98450.13;;;12.61;56.86
34081;BME280;20358;50.272;19.026;2024-02-21T13:25:08;98444.47;;;12.69;56.77
34081;BME280;20358;50.272;19.026;2024-02-21T13:28:23;98417.91;;;12.59;56.00
34081;BME280;20358;50.272;19.026;2024-02-21T13:31:58;98446.47;;;12.79;55.91
34081;BME280;20358;50.272;19.026;2024-02-21T13:35:07;98442.94;;;12.80;56.17
34081;BME280;20358;50.272;19.026;2024-02-21T13:38:18;98432.94;;;12.87;56.57
34081;BME280;20358;50.272;19.026;2024-02-21T13:41:33;98418.88;;;12.88;55.83
34081;BME280;20358;50.272;19.026;2024-02-21T13:44:48;98429.28;;;12.89;55.88
34081;BME280;20358;50.272;19.026;2024-02-21T13:48:00;98429.69;;;12.97;56.14
34081;BME280;20358;50.272;19.026;2024-02-21T13:51:10;98410.41;;;12.98;56.15
34081;BME280;20358;50.272;19.026;2024-02-21T13:54:24;98415.81;;;12.95;55.75
34081;BME280;20358;50.272;19.026;2024-02-21T13:57:37;98421.06;;;12.95;56.23
34081;BME280;20358;50.272;19.026;2024-02-21T14:00:48;98412.50;;;12.92;56.04
34081;BME280;20358;50.272;19.026;2024-02-21T14:04:19;98405.88;;;12.86;56.01
34081;BME280;20358;50.272;19.026;2024-02-21T14:07:27;98404.34;;;12.82;56.64
34081;BME280;20358;50.272;19.026;2024-02-21T14:10:42;98402.47;;;12.84;56.61
34081;BME280;20358;50.272;19.026;2024-02-21T14:13:56;98385.06;;;12.83;56.94
34081;BME280;20358;50.272;19.026;2024-02-21T14:17:04;98386.72;;;12.84;56.54
34081;BME280;20358;50.272;19.026;2024-02-21T14:20:13;98375.47;;;12.82;56.50
34081;BME280;20358;50.272;19.026;2024-02-21T14:23:21;98372.03;;;12.66;56.58
34081;BME280;20358;50.272;19.026;2024-02-21T14:26:32;98372.88;;;12.67;56.51
34081;BME280;20358;50.272;19.026;2024-02-21T14:29:42;98371.13;;;12.67;56.70
34081;BME280;20358;50.272;19.026;2024-02-21T14:32:55;98367.75;;;12.65;56.76
34081;BME280;20358;50.272;19.026;2024-02-21T14:36:13;98352.94;;;12.64;56.86
34081;BME280;20358;50.272;19.026;2024-02-21T14:39:22;98338.91;;;12.65;57.06
34081;BME280;20358;50.272;19.026;2024-02-21T14:42:36;98332.69;;;12.66;57.06
34081;BME280;20358;50.272;19.026;2024-02-21T14:45:51;98338.91;;;12.65;56.88
34081;BME280;20358;50.272;19.026;2024-02-21T14:48:59;98321.28;;;12.67;56.91
34081;BME280;20358;50.272;19.026;2024-02-21T14:52:08;98333.81;;;12.62;56.23
34081;BME280;20358;50.272;19.026;2024-02-21T14:55:19;98330.44;;;12.60;56.61
34081;BME280;20358;50.272;19.026;2024-02-21T14:58:31;98333.66;;;12.65;57.01
34081;BME280;20358;50.272;19.026;2024-02-21T15:01:39;98337.38;;;12.61;55.78
34081;BME280;20358;50.272;19.026;2024-02-21T15:04:54;98335.69;;;12.60;56.02
34081;BME280;20358;50.272;19.026;2024-02-21T15:08:03;98328.75;;;12.59;55.74
34081;BME280;20358;50.272;19.026;2024-02-21T15:11:15;98332.50;;;12.55;55.64
34081;BME280;20358;50.272;19.026;2024-02-21T15:14:26;98340.16;;;12.58;56.01
34081;BME280;20358;50.272;19.026;2024-02-21T15:17:34;98322.91;;;12.54;55.75
34081;BME280;20358;50.272;19.026;2024-02-21T15:20:41;98336.28;;;12.65;55.78
34081;BME280;20358;50.272;19.026;2024-02-21T15:23:49;98320.25;;;12.70;55.75
34081;BME280;20358;50.272;19.026;2024-02-21T15:26:56;98327.00;;;12.74;55.39
34081;BME280;20358;50.272;19.026;2024-02-21T15:30:17;98324.31;;;12.75;55.31
34081;BME280;20358;50.272;19.026;2024-02-21T15:33:30;98320.56;;;12.79;54.79
34081;BME280;20358;50.272;19.026;2024-02-21T15:36:48;98315.31;;;12.79;54.63
34081;BME280;20358;50.272;19.026;2024-02-21T15:40:00;98307.63;;;12.76;54.54
34081;BME280;20358;50.272;19.026;2024-02-21T15:43:11;98302.75;;;12.70;54.46
34081;BME280;20358;50.272;19.026;2024-02-21T15:46:25;98298.25;;;12.72;54.62
34081;BME280;20358;50.272;19.026;2024-02-21T15:49:38;98295.06;;;12.67;54.79
34081;BME280;20358;50.272;19.026;2024-02-21T15:52:45;98304.41;;;12.71;54.71
34081;BME280;20358;50.272;19.026;2024-02-21T15:55:55;98302.75;;;12.70;54.78
34081;BME280;20358;50.272;19.026;2024-02-21T15:59:09;98305.78;;;12.78;55.01
34081;BME280;20358;50.272;19.026;2024-02-21T16:02:47;98311.75;;;12.80;54.72
34081;BME280;20358;50.272;19.026;2024-02-21T16:05:58;98301.44;;;12.77;54.49
34081;BME280;20358;50.272;19.026;2024-02-21T16:09:15;98298.06;;;12.75;54.83
34081;BME280;20358;50.272;19.026;2024-02-21T16:12:23;98305.19;;;12.73;54.75
34081;BME280;20358;50.272;19.026;2024-02-21T16:15:37;98294.31;;;12.65;54.64
34081;BME280;20358;50.272;19.026;2024-02-21T16:18:48;98287.72;;;12.58;54.86
34081;BME280;20358;50.272;19.026;2024-02-21T16:22:10;98286.56;;;12.48;55.09
34081;BME280;20358;50.272;19.026;2024-02-21T16:26:23;98290.38;;;12.42;55.18
34081;BME280;20358;50.272;19.026;2024-02-21T16:29:37;98291.75;;;12.34;55.21
34081;BME280;20358;50.272;19.026;2024-02-21T16:32:46;98301.91;;;12.24;55.66
34081;BME280;20358;50.272;19.026;2024-02-21T16:36:06;98290.94;;;12.18;55.85
34081;BME280;20358;50.272;19.026;2024-02-21T16:39:44;98291.94;;;12.15;55.88
34081;BME280;20358;50.272;19.026;2024-02-21T16:42:52;98290.44;;;12.11;56.12
34081;BME280;20358;50.272;19.026;2024-02-21T16:46:00;98283.69;;;12.07;56.03
34081;BME280;20358;50.272;19.026;2024-02-21T16:49:09;98287.84;;;11.96;56.17
34081;BME280;20358;50.272;19.026;2024-02-21T16:52:18;98290.47;;;11.96;56.21
34081;BME280;20358;50.272;19.026;2024-02-21T16:55:27;98283.78;;;11.90;56.31
34081;BME280;20358;50.272;19.026;2024-02-21T16:58:41;98282.19;;;11.88;56.65
34081;BME280;20358;50.272;19.026;2024-02-21T17:01:49;98281.41;;;11.86;56.69